createdAt,value
2018-06-28T00:01:52.484Z,16.90
2018-06-28T00:04:21.684Z,18.40
2018-06-28T00:06:51.405Z,17.50
2018-06-28T00:09:20.582Z,15.80
2018-06-28T00:11:49.840Z,17.60
2018-06-28T00:14:18.992Z,16.43
2018-06-28T00:16:48.204Z,16.30
2018-06-28T00:19:17.378Z,17.00
2018-06-28T00:21:46.594Z,16.30
2018-06-28T00:24:15.809Z,17.00
2018-06-28T00:26:44.919Z,17.40
2018-06-28T00:29:14.166Z,16.60
2018-06-28T00:31:43.446Z,16.33
2018-06-28T00:34:12.277Z,16.50
2018-06-28T00:36:41.024Z,17.83
2018-06-28T00:39:10.966Z,17.00
2018-06-28T00:41:40.266Z,15.47
2018-06-28T00:44:09.540Z,15.53
2018-06-28T00:46:38.249Z,14.63
2018-06-28T00:49:07.447Z,16.70
2018-06-28T00:51:36.171Z,15.90
2018-06-28T00:54:04.945Z,15.70
2018-06-28T00:56:33.663Z,14.40
2018-06-28T00:59:02.391Z,16.13
2018-06-28T01:01:31.513Z,14.60
2018-06-28T01:04:00.702Z,16.53
2018-06-28T01:06:29.993Z,15.90
2018-06-28T01:08:59.188Z,17.10
2018-06-28T01:11:28.398Z,15.60
2018-06-28T01:13:57.609Z,16.67
2018-06-28T01:16:26.582Z,15.97
2018-06-28T01:18:55.629Z,16.03
2018-06-28T01:21:24.325Z,15.20
2018-06-28T01:23:53.029Z,14.37
2018-06-28T01:26:21.765Z,14.73
2018-06-28T01:28:50.589Z,15.47
2018-06-28T01:31:19.715Z,15.30
2018-06-28T01:33:49.026Z,16.33
2018-06-28T01:36:18.226Z,16.57
2018-06-28T01:38:47.446Z,15.73
2018-06-28T01:41:16.532Z,16.30
2018-06-28T01:43:46.466Z,14.90
2018-06-28T01:46:16.207Z,15.27
2018-06-28T01:48:45.683Z,16.33
2018-06-28T01:51:14.942Z,16.20
2018-06-28T01:53:44.159Z,15.40
2018-06-28T01:56:13.345Z,17.93
2018-06-28T01:58:42.546Z,16.20
2018-06-28T02:01:11.739Z,16.53
2018-06-28T02:03:41.223Z,17.47
2018-06-28T02:06:10.241Z,17.30
2018-06-28T02:08:39.229Z,16.37
2018-06-28T02:11:08.429Z,16.87
2018-06-28T02:13:37.642Z,15.80
2018-06-28T02:16:06.871Z,17.23
2018-06-28T02:18:36.047Z,18.30
2018-06-28T02:21:05.347Z,19.53
2018-06-28T02:23:34.572Z,17.33
2018-06-28T02:26:03.746Z,18.90
2018-06-28T02:28:32.861Z,18.97
2018-06-28T02:31:02.117Z,19.33
2018-06-28T02:33:31.030Z,18.07
2018-06-28T02:35:59.742Z,16.97
2018-06-28T02:38:28.897Z,18.57
2018-06-28T02:40:58.102Z,19.50
2018-06-28T02:43:27.398Z,20.90
2018-06-28T02:45:56.695Z,23.97
2018-06-28T02:48:25.611Z,25.97
2018-06-28T02:50:54.622Z,23.57
2018-06-28T02:53:23.687Z,22.40
2018-06-28T02:55:52.687Z,25.13
2018-06-28T02:58:21.909Z,25.30
2018-06-28T03:00:50.875Z,24.83
2018-06-28T03:03:20.177Z,25.97
2018-06-28T03:05:49.081Z,26.80
2018-06-28T03:08:18.271Z,22.70
2018-06-28T03:10:47.261Z,27.60
2018-06-28T03:13:16.570Z,23.83
2018-06-28T03:15:45.738Z,26.10
2018-06-28T03:18:14.933Z,22.70
2018-06-28T03:20:44.177Z,23.93
2018-06-28T03:23:13.232Z,24.00
2018-06-28T03:25:42.462Z,23.37
2018-06-28T03:28:11.621Z,24.40
2018-06-28T03:30:40.851Z,24.60
2018-06-28T03:33:10.031Z,24.37
2018-06-28T03:35:39.221Z,23.03
2018-06-28T03:38:08.562Z,23.03
2018-06-28T03:40:37.829Z,23.93
2018-06-28T03:43:07.046Z,23.67
2018-06-28T03:45:36.238Z,24.67
2018-06-28T03:48:05.430Z,22.33
2018-06-28T03:50:34.452Z,31.77
2018-06-28T03:53:03.614Z,25.53
2018-06-28T03:55:32.815Z,23.57
2018-06-28T03:58:02.384Z,24.77
2018-06-28T04:00:31.540Z,27.17
2018-06-28T04:03:00.750Z,20.73
2018-06-28T04:05:29.450Z,23.80
2018-06-28T04:07:58.493Z,23.70
2018-06-28T04:10:27.554Z,23.90
2018-06-28T04:12:56.691Z,25.70
2018-06-28T04:15:25.726Z,27.47
2018-06-28T04:17:54.929Z,25.53
2018-06-28T04:20:24.106Z,23.20
2018-06-28T04:22:53.283Z,23.90
2018-06-28T04:25:22.492Z,22.83
2018-06-28T04:27:51.689Z,24.60
2018-06-28T04:30:20.919Z,23.80
2018-06-28T04:32:50.098Z,21.73
2018-06-28T04:35:19.561Z,22.93
2018-06-28T04:37:48.778Z,22.07
2018-06-28T04:40:17.974Z,23.80
2018-06-28T04:42:47.274Z,23.87
2018-06-28T04:45:16.578Z,22.33
2018-06-28T04:47:45.306Z,21.90
2018-06-28T04:50:14.022Z,20.97
2018-06-28T04:52:42.763Z,21.37
2018-06-28T04:55:11.462Z,25.13
2018-06-28T04:57:40.558Z,22.23
2018-06-28T05:00:09.717Z,22.30
2018-06-28T05:02:38.910Z,22.70
2018-06-28T05:05:08.105Z,20.07
2018-06-28T05:07:37.217Z,24.30
2018-06-28T05:10:06.554Z,22.20
2018-06-28T05:12:35.813Z,23.83
2018-06-28T05:15:05.013Z,21.53
2018-06-28T05:17:34.218Z,20.80
2018-06-28T05:20:03.401Z,22.40
2018-06-28T05:22:32.639Z,31.57
2018-06-28T05:25:01.808Z,26.67
2018-06-28T05:27:31.007Z,27.30
2018-06-28T05:30:00.415Z,23.97
2018-06-28T05:32:29.369Z,22.27
2018-06-28T05:34:58.642Z,21.40
2018-06-28T05:37:28.005Z,19.40
2018-06-28T05:39:57.310Z,21.07
2018-06-28T05:42:26.422Z,20.73
2018-06-28T05:44:55.593Z,15.90
2018-06-28T05:47:24.827Z,16.67
2018-06-28T05:49:54.087Z,16.17
2018-06-28T05:52:23.328Z,16.93
2018-06-28T05:54:52.504Z,17.77
2018-06-28T05:57:21.685Z,16.70
2018-06-28T05:59:50.920Z,13.23
2018-06-28T06:02:20.077Z,13.87
2018-06-28T06:04:49.277Z,13.87
2018-06-28T06:07:18.478Z,14.70
2018-06-28T06:09:47.735Z,12.57
2018-06-28T06:12:16.930Z,12.00
2018-06-28T06:14:46.204Z,12.97
2018-06-28T06:17:15.382Z,11.47
2018-06-28T06:19:44.578Z,13.13
2018-06-28T06:22:13.775Z,14.13
2018-06-28T06:24:42.965Z,13.97
2018-06-28T06:27:12.178Z,13.47
2018-06-28T06:29:41.437Z,13.97
2018-06-28T06:32:10.627Z,11.93
2018-06-28T06:34:39.853Z,13.10
2018-06-28T06:37:09.092Z,11.40
2018-06-28T06:39:38.053Z,11.80
2018-06-28T06:42:07.256Z,12.40
2018-06-28T06:44:36.284Z,10.03
2018-06-28T06:47:05.333Z,11.37
2018-06-28T06:49:34.640Z,12.30
2018-06-28T06:52:03.899Z,10.33
2018-06-28T06:54:33.094Z,9.20
2018-06-28T06:57:02.261Z,11.77
2018-06-28T06:59:31.523Z,10.70
2018-06-28T07:02:00.657Z,15.83
2018-06-28T07:04:29.864Z,12.20
2018-06-28T07:06:59.045Z,10.87
2018-06-28T07:09:28.293Z,11.33
2018-06-28T07:11:57.315Z,11.17
2018-06-28T07:14:26.525Z,9.97
2018-06-28T07:16:55.727Z,10.00
2018-06-28T07:19:24.936Z,11.03
2018-06-28T07:21:54.008Z,10.20
2018-06-28T07:24:23.119Z,10.27
2018-06-28T07:26:52.427Z,10.40
2018-06-28T07:29:21.722Z,12.27
2018-06-28T07:31:51.050Z,10.93
2018-06-28T07:34:20.166Z,11.93
2018-06-28T07:36:49.447Z,12.03
2018-06-28T07:39:18.646Z,12.67
2018-06-28T07:41:47.822Z,13.67
2018-06-28T07:44:17.001Z,11.10
2018-06-28T07:46:46.237Z,10.90
2018-06-28T07:49:19.554Z,10.37
2018-06-28T07:51:49.034Z,8.67
2018-06-28T07:54:18.535Z,9.93
2018-06-28T07:56:47.536Z,13.13
2018-06-28T07:59:16.243Z,9.73
2018-06-28T08:01:44.950Z,9.63
2018-06-28T08:04:14.221Z,10.30
2018-06-28T08:06:42.918Z,8.50
2018-06-28T08:09:11.612Z,8.10
2018-06-28T08:11:40.752Z,7.23
2018-06-28T08:14:09.787Z,5.90
2018-06-28T08:16:39.039Z,5.83
2018-06-28T08:19:08.098Z,5.07
2018-06-28T08:21:37.217Z,5.83
2018-06-28T08:24:06.353Z,6.20
2018-06-28T08:26:35.562Z,5.50
2018-06-28T08:29:04.713Z,4.97
2018-06-28T08:31:33.957Z,6.20
2018-06-28T08:34:03.227Z,6.03
2018-06-28T08:36:32.681Z,6.20
2018-06-28T08:39:01.826Z,7.70
2018-06-28T08:41:31.086Z,6.73
2018-06-28T08:44:00.209Z,6.90
2018-06-28T08:46:29.530Z,7.43
2018-06-28T08:48:58.984Z,7.20
2018-06-28T08:51:28.121Z,6.63
2018-06-28T08:53:57.353Z,5.80
2018-06-28T08:56:26.424Z,5.47
2018-06-28T08:58:55.626Z,5.30
2018-06-28T09:01:24.967Z,5.33
2018-06-28T09:03:54.142Z,6.20
2018-06-28T09:06:23.222Z,6.20
2018-06-28T09:08:52.408Z,5.50
2018-06-28T09:11:21.613Z,6.40
2018-06-28T09:13:50.845Z,5.97
2018-06-28T09:16:20.014Z,5.40
2018-06-28T09:18:49.240Z,5.07
2018-06-28T09:21:18.573Z,5.60
2018-06-28T09:23:47.701Z,7.53
2018-06-28T09:26:16.847Z,5.67
2018-06-28T09:28:46.909Z,4.90
2018-06-28T09:31:16.229Z,5.10
2018-06-28T09:33:45.563Z,4.97
2018-06-28T09:36:14.571Z,5.50
2018-06-28T09:38:43.494Z,5.67
2018-06-28T09:41:12.810Z,6.90
2018-06-28T09:43:42.112Z,5.63
2018-06-28T09:46:11.551Z,9.43
2018-06-28T09:48:40.664Z,6.70
2018-06-28T09:51:09.872Z,6.40
2018-06-28T09:53:38.912Z,6.23
2018-06-28T09:56:08.341Z,6.00
2018-06-28T09:58:37.501Z,7.30
2018-06-28T10:01:06.807Z,6.50
2018-06-28T10:03:36.047Z,5.57
2018-06-28T10:06:05.186Z,6.80
2018-06-28T10:08:34.293Z,5.97
2018-06-28T10:11:03.503Z,5.90
2018-06-28T10:13:32.699Z,7.60
2018-06-28T10:16:01.933Z,6.27
2018-06-28T10:18:30.981Z,6.63
2018-06-28T10:21:00.042Z,5.80
2018-06-28T10:23:29.466Z,5.77
2018-06-28T10:25:58.499Z,6.70
2018-06-28T10:28:27.533Z,5.83
2018-06-28T10:30:56.519Z,6.80
2018-06-28T10:33:25.677Z,7.40
2018-06-28T10:35:54.875Z,7.03
2018-06-28T10:38:24.055Z,7.60
2018-06-28T10:40:53.345Z,7.83
2018-06-28T10:43:22.471Z,6.43
2018-06-28T10:45:51.643Z,6.90
2018-06-28T10:48:20.906Z,7.73
2018-06-28T10:50:50.058Z,7.40
2018-06-28T10:53:19.136Z,7.40
2018-06-28T10:55:48.283Z,7.20
2018-06-28T10:58:17.444Z,7.20
2018-06-28T11:00:46.675Z,7.80
2018-06-28T11:03:15.846Z,7.67
2018-06-28T11:05:45.059Z,9.20
2018-06-28T11:08:14.253Z,7.77
2018-06-28T11:10:43.453Z,7.57
2018-06-28T11:13:12.653Z,7.03
2018-06-28T11:15:41.958Z,7.50
2018-06-28T11:18:11.154Z,8.50
2018-06-28T11:20:40.326Z,10.53
2018-06-28T11:23:09.527Z,10.13
2018-06-28T11:25:38.666Z,11.87
2018-06-28T11:28:07.818Z,21.90
2018-06-28T11:30:37.126Z,15.57
2018-06-28T11:33:06.432Z,13.73
2018-06-28T11:35:35.722Z,13.07
2018-06-28T11:38:05.036Z,13.93
2018-06-28T11:40:34.230Z,16.90
2018-06-28T11:43:03.763Z,13.37
2018-06-28T11:45:32.939Z,14.20
2018-06-28T11:48:02.778Z,15.07
2018-06-28T11:50:32.165Z,13.97
2018-06-28T11:53:01.233Z,15.73
2018-06-28T11:55:30.325Z,17.93
2018-06-28T11:57:59.620Z,19.23
2018-06-28T12:00:29.065Z,21.83
2018-06-28T12:02:58.335Z,17.83
2018-06-28T12:05:27.400Z,19.37
2018-06-28T12:07:56.685Z,17.47
2018-06-28T12:10:25.985Z,20.27
2018-06-28T12:12:54.979Z,20.00
2018-06-28T12:15:24.125Z,20.30
2018-06-28T12:17:53.169Z,20.70
2018-06-28T12:20:21.985Z,16.57
2018-06-28T12:22:50.832Z,17.30
2018-06-28T12:25:19.678Z,17.10
2018-06-28T12:27:48.441Z,20.60
2018-06-28T12:30:17.241Z,20.03
2018-06-28T12:32:46.018Z,18.53
2018-06-28T12:35:14.907Z,20.70
2018-06-28T12:37:44.097Z,18.40
2018-06-28T12:40:12.859Z,24.23
2018-06-28T12:42:41.753Z,14.67
2018-06-28T12:45:10.490Z,14.87
2018-06-28T12:47:51.637Z,18.10
2018-06-28T12:50:20.501Z,17.80
2018-06-28T12:52:57.334Z,22.37
2018-06-28T12:55:26.768Z,18.17
2018-06-28T12:57:57.783Z,19.00
2018-06-28T13:00:26.520Z,17.07
2018-06-28T13:02:55.295Z,21.27
2018-06-28T13:05:24.069Z,19.53
2018-06-28T13:07:52.850Z,18.10
2018-06-28T13:10:21.619Z,17.70
2018-06-28T13:12:50.398Z,17.07
2018-06-28T13:15:19.153Z,14.80
2018-06-28T13:17:47.893Z,15.97
2018-06-28T13:20:19.983Z,16.80
2018-06-28T13:22:48.821Z,14.20
2018-06-28T13:25:17.590Z,14.80
2018-06-28T13:27:46.377Z,12.20
2018-06-28T13:30:15.839Z,12.07
2018-06-28T13:32:44.663Z,14.17
2018-06-28T13:35:13.584Z,14.80
2018-06-28T13:37:45.148Z,12.90
2018-06-28T13:40:19.142Z,11.40
2018-06-28T13:42:51.389Z,12.23
2018-06-28T13:45:23.703Z,14.17
2018-06-28T13:47:52.594Z,13.13
2018-06-28T13:50:21.385Z,11.70
2018-06-28T13:52:50.103Z,12.80
2018-06-28T13:55:18.903Z,13.63
2018-06-28T13:57:47.935Z,12.10
2018-06-28T14:00:16.974Z,9.80
2018-06-28T14:02:46.197Z,13.77
2018-06-28T14:05:15.419Z,9.97
2018-06-28T14:07:44.646Z,11.50
2018-06-28T14:10:14.209Z,12.60
2018-06-28T14:12:43.279Z,10.50
2018-06-28T14:15:12.475Z,13.93
2018-06-28T14:17:41.674Z,10.77
2018-06-28T14:20:11.102Z,9.30
2018-06-28T14:22:40.405Z,8.57
2018-06-28T14:25:09.851Z,8.90
2018-06-28T14:27:39.043Z,9.30
2018-06-28T14:30:09.763Z,7.90
2018-06-28T14:32:38.810Z,9.50
2018-06-28T14:35:08.211Z,8.23
2018-06-28T14:37:37.465Z,9.60
2018-06-28T14:40:06.882Z,9.00
2018-06-28T14:42:36.267Z,8.23
2018-06-28T14:45:05.477Z,8.77
2018-06-28T14:47:34.854Z,9.67
2018-06-28T14:50:04.079Z,9.13
2018-06-28T14:52:33.209Z,7.87
2018-06-28T14:55:02.672Z,8.20
2018-06-28T14:57:31.709Z,6.90
2018-06-28T15:00:00.727Z,7.23
2018-06-28T15:02:29.780Z,6.60
2018-06-28T15:04:59.095Z,7.60
2018-06-28T15:07:28.357Z,8.03
2018-06-28T15:09:57.465Z,8.30
2018-06-28T15:12:26.691Z,7.50
2018-06-28T15:14:55.906Z,7.00
2018-06-28T15:17:25.073Z,6.37
2018-06-28T15:19:54.231Z,6.83
2018-06-28T15:22:23.398Z,12.37
2018-06-28T15:24:52.634Z,8.33
2018-06-28T15:27:21.781Z,8.10
2018-06-28T15:29:51.085Z,7.43
2018-06-28T15:32:20.240Z,7.53
2018-06-28T15:34:49.373Z,8.93
2018-06-28T15:37:18.562Z,8.27
2018-06-28T15:39:47.921Z,8.30
2018-06-28T15:42:17.285Z,7.60
2018-06-28T15:44:46.421Z,10.83
2018-06-28T15:47:15.568Z,9.00
2018-06-28T15:49:44.913Z,8.80
2018-06-28T15:52:14.069Z,7.50
2018-06-28T15:54:43.261Z,7.33
2018-06-28T15:57:12.574Z,6.70
2018-06-28T15:59:41.776Z,6.50
2018-06-28T16:02:10.494Z,6.40
2018-06-28T16:04:39.216Z,7.77
2018-06-28T16:07:08.094Z,6.87
2018-06-28T16:09:36.861Z,7.10
2018-06-28T16:12:05.890Z,6.00
2018-06-28T16:14:34.643Z,5.67
2018-06-28T16:17:03.485Z,5.53
2018-06-28T16:19:32.222Z,3.70
2018-06-28T16:22:00.912Z,3.80
2018-06-28T16:24:29.602Z,2.90
2018-06-28T16:26:58.298Z,3.97
2018-06-28T16:29:27.164Z,4.20
2018-06-28T16:31:56.035Z,3.00
2018-06-28T16:34:24.733Z,2.80
2018-06-28T16:36:53.719Z,3.07
2018-06-28T16:39:22.450Z,2.37
2018-06-28T16:41:51.181Z,2.77
2018-06-28T16:44:19.890Z,3.10
2018-06-28T16:46:48.625Z,2.73
2018-06-28T16:49:17.362Z,2.60
2018-06-28T16:51:46.088Z,2.83
2018-06-28T16:54:14.809Z,3.07
2018-06-28T16:56:43.700Z,3.33
2018-06-28T16:59:12.438Z,2.80
2018-06-28T17:01:41.349Z,3.57
2018-06-28T17:04:10.075Z,3.40
2018-06-28T17:06:39.034Z,2.57
2018-06-28T17:09:09.075Z,3.43
2018-06-28T17:11:37.933Z,4.30
2018-06-28T17:14:07.370Z,3.43
2018-06-28T17:16:36.232Z,3.37
2018-06-28T17:19:05.530Z,3.47
2018-06-28T17:21:34.252Z,3.27
2018-06-28T17:24:02.977Z,3.73
2018-06-28T17:26:31.746Z,3.57
2018-06-28T17:29:00.488Z,4.20
2018-06-28T17:31:29.369Z,4.10
2018-06-28T17:33:58.117Z,4.43
2018-06-28T17:36:26.865Z,6.90
2018-06-28T17:38:55.643Z,7.63
2018-06-28T17:41:24.478Z,7.47
2018-06-28T17:43:53.355Z,7.50
2018-06-28T17:46:22.133Z,8.73
2018-06-28T17:48:50.887Z,5.50
2018-06-28T17:51:19.642Z,7.20
2018-06-28T17:53:48.790Z,5.67
2018-06-28T17:56:17.598Z,7.43
2018-06-28T17:58:46.323Z,6.37
2018-06-28T18:01:15.098Z,5.83
2018-06-28T18:03:43.845Z,8.23
2018-06-28T18:06:12.600Z,9.90
2018-06-28T18:08:41.378Z,7.90
2018-06-28T18:11:10.140Z,6.57
2018-06-28T18:13:38.900Z,6.63
2018-06-28T18:16:07.683Z,7.40
2018-06-28T18:18:36.436Z,11.77
2018-06-28T18:21:05.237Z,8.10
2018-06-28T18:23:34.042Z,6.80
2018-06-28T18:26:02.773Z,9.00
2018-06-28T18:28:31.522Z,6.43
2018-06-28T18:31:00.233Z,6.87
2018-06-28T18:33:28.982Z,7.83
2018-06-28T18:35:57.778Z,6.30
2018-06-28T18:38:26.623Z,8.57
2018-06-28T18:40:55.451Z,9.13
2018-06-28T18:43:24.222Z,9.70
2018-06-28T18:45:53.184Z,9.70
2018-06-28T18:48:22.132Z,9.20
2018-06-28T18:50:51.003Z,9.13
2018-06-28T18:53:19.714Z,9.27
2018-06-28T18:55:48.794Z,8.30
2018-06-28T18:58:17.527Z,10.43
2018-06-28T19:00:46.319Z,9.07
2018-06-28T19:03:15.050Z,9.70
2018-06-28T19:05:43.815Z,9.37
2018-06-28T19:08:12.548Z,8.40
2018-06-28T19:10:46.394Z,7.67
2018-06-28T19:13:15.173Z,10.20
2018-06-28T19:15:48.933Z,7.57
2018-06-28T19:18:17.798Z,7.00
2018-06-28T19:20:50.607Z,8.17
2018-06-28T19:23:51.188Z,7.87
2018-06-28T19:26:20.282Z,7.17
2018-06-28T19:28:49.637Z,9.77
2018-06-28T19:31:23.604Z,12.27
2018-06-28T19:33:52.385Z,11.23
2018-06-28T19:36:21.260Z,7.93
2018-06-28T19:38:55.053Z,10.30
2018-06-28T19:41:29.056Z,10.53
2018-06-28T19:43:57.743Z,8.00
2018-06-28T19:46:26.504Z,8.10
2018-06-28T19:48:55.249Z,9.30
2018-06-28T19:51:30.877Z,6.40
2018-06-28T19:54:02.559Z,7.10
2018-06-28T19:56:31.544Z,8.10
2018-06-28T19:59:00.296Z,7.23
2018-06-28T20:01:34.493Z,6.60
2018-06-28T20:04:08.366Z,7.60
2018-06-28T20:06:37.095Z,6.80
2018-06-28T20:09:08.451Z,7.57
2018-06-28T20:11:37.282Z,5.43
2018-06-28T20:14:11.229Z,7.17
2018-06-28T20:16:45.218Z,6.37
2018-06-28T20:19:19.070Z,6.40
2018-06-28T20:21:47.912Z,6.47
2018-06-28T20:24:16.681Z,7.47
2018-06-28T20:26:50.597Z,8.83
2018-06-28T20:29:24.529Z,8.10
2018-06-28T20:31:58.392Z,8.17
2018-06-28T20:34:27.186Z,8.40
2018-06-28T20:36:55.960Z,8.83
2018-06-28T20:39:24.779Z,8.50
2018-06-28T20:41:53.789Z,9.67
2018-06-28T20:44:22.733Z,8.20
2018-06-28T20:46:51.556Z,9.60
2018-06-28T20:49:20.444Z,8.27
2018-06-28T20:51:49.199Z,8.57
2018-06-28T20:54:18.400Z,9.10
2018-06-28T20:56:47.229Z,10.70
2018-06-28T20:59:16.047Z,8.70
2018-06-28T21:01:44.848Z,8.77
2018-06-28T21:04:13.630Z,8.60
2018-06-28T21:06:42.344Z,9.63
2018-06-28T21:09:11.081Z,9.70
2018-06-28T21:11:39.824Z,8.70
2018-06-28T21:14:08.579Z,9.17
2018-06-28T21:16:37.322Z,9.10
2018-06-28T21:19:06.124Z,9.17
2018-06-28T21:21:34.896Z,8.57
2018-06-28T21:24:03.631Z,7.87
2018-06-28T21:26:32.367Z,9.63
2018-06-28T21:29:01.090Z,6.90
2018-06-28T21:31:29.793Z,8.30
2018-06-28T21:33:58.531Z,8.40
2018-06-28T21:36:27.294Z,7.60
2018-06-28T21:38:56.011Z,7.37
2018-06-28T21:41:24.821Z,7.40
2018-06-28T21:43:53.853Z,8.03
2018-06-28T21:46:22.748Z,8.40
2018-06-28T21:48:51.541Z,6.43
2018-06-28T21:51:20.246Z,7.10
2018-06-28T21:53:48.997Z,6.77
2018-06-28T21:56:17.684Z,8.30
2018-06-28T21:58:46.402Z,5.73
2018-06-28T22:01:15.125Z,5.50
2018-06-28T22:03:43.834Z,4.63
2018-06-28T22:06:12.560Z,4.33
2018-06-28T22:08:41.278Z,4.87
2018-06-28T22:11:10.017Z,5.37
2018-06-28T22:13:38.697Z,5.50
2018-06-28T22:16:07.431Z,4.60
2018-06-28T22:18:36.149Z,4.40
2018-06-28T22:21:04.861Z,4.80
2018-06-28T22:23:33.611Z,5.43
2018-06-28T22:26:02.325Z,5.43
2018-06-28T22:28:31.075Z,4.90
2018-06-28T22:30:59.800Z,4.80
2018-06-28T22:33:28.501Z,4.00
2018-06-28T22:35:57.239Z,6.87
2018-06-28T22:38:25.959Z,4.30
2018-06-28T22:40:54.698Z,4.47
2018-06-28T22:43:23.447Z,3.90
2018-06-28T22:45:52.173Z,4.20
2018-06-28T22:48:20.908Z,4.37
2018-06-28T22:50:49.606Z,3.67
2018-06-28T22:53:18.301Z,5.50
2018-06-28T22:55:47.078Z,7.50
2018-06-28T22:58:15.776Z,5.27
2018-06-28T23:00:44.487Z,5.93
2018-06-28T23:03:13.234Z,5.70
2018-06-28T23:05:41.979Z,5.47
2018-06-28T23:08:10.916Z,5.87
2018-06-28T23:10:39.625Z,4.87
2018-06-28T23:13:08.337Z,5.17
2018-06-28T23:15:37.029Z,5.77
2018-06-28T23:18:05.839Z,6.40
2018-06-28T23:20:34.548Z,6.80
2018-06-28T23:23:03.254Z,5.83
2018-06-28T23:25:32.082Z,5.50
2018-06-28T23:28:00.833Z,5.37
2018-06-28T23:30:29.530Z,5.30
2018-06-28T23:32:58.288Z,5.53
2018-06-28T23:35:27.456Z,6.37
2018-06-28T23:37:56.201Z,5.90
2018-06-28T23:40:24.917Z,5.23
2018-06-28T23:42:53.629Z,4.80
2018-06-28T23:45:22.336Z,4.17
2018-06-28T23:47:51.079Z,4.20
2018-06-28T23:50:19.849Z,4.40
2018-06-28T23:52:48.547Z,4.27
2018-06-28T23:55:17.259Z,4.10
2018-06-28T23:57:45.999Z,4.40
